This is the latest recevied weather packets stored in our database for station/object K7DC. If no packets are shown the sender has not sent any weather packets the latest 10 day(s).
| Time | Temp. | Humidity | Pressure | Rain* | Wind** | Luminosity | Snow |
|---|---|---|---|---|---|---|---|
| 1787978834 | 31.11° C | 34% | 1015.4 hPa | 0 mm | - | 0 W/m² | - |
| 1787978530 | 31.11° C | 35% | 1015.4 hPa | 0 mm | - | 0 W/m² | - |
| 1787978226 | 31.67° C | 35% | 1015.5 hPa | 0 mm | - | 0 W/m² | - |
| 1787977925 | 31.67° C | 34% | 1015.6 hPa | 0 mm | - | 0 W/m² | - |
| 1787977624 | 31.67° C | 34% | 1015.2 hPa | 0 mm | - | 0 W/m² | - |
| 1787977320 | 32.22° C | 34% | 1015.2 hPa | 0 mm | - | 0 W/m² | - |
| 1787977015 | 32.22° C | 34% | 1015.3 hPa | 0 mm | - | 0 W/m² | - |
| 1787976710 | 32.22° C | 33% | 1015.1 hPa | 0 mm | - | 0 W/m² | - |
| 1787976405 | 32.78° C | 33% | 1015.2 hPa | 0 mm | - | 0 W/m² | - |
| 1787976100 | 32.78° C | 32% | 1015.2 hPa | 0 mm | - | 0 W/m² | - |
| 1787975799 | 32.78° C | 32% | 1015.2 hPa | 0 mm | - | 0 W/m² | - |
| 1787975498 | 32.78° C | 33% | 1015.3 hPa | 0 mm | - | 0 W/m² | - |
| 1787975197 | 32.78° C | 33% | 1015 hPa | 0 mm | - | 0 W/m² | - |
| 1787974896 | 33.33° C | 31% | 1015.1 hPa | 0 mm | - | 0 W/m² | - |
| 1787974595 | 33.33° C | 33% | 1015.1 hPa | 0 mm | - | 0 W/m² | - |
| 1787974291 | 33.33° C | 32% | 1014.7 hPa | 0 mm | - | 0 W/m² | - |
| 1787973989 | 32.78° C | 33% | 1014.4 hPa | 0 mm | - | 0 W/m² | - |
| 1787973685 | 32.22° C | 35% | 1014.5 hPa | 0 mm | - | 0 W/m² | - |
| 1787973380 | 32.78° C | 36% | 1014.3 hPa | 0 mm | - | 0 W/m² | - |
| 1787973080 | 33.89° C | 32% | 1013.9 hPa | 0 mm | - | 0 W/m² | - |
| 1787972775 | 33.89° C | 31% | 1013.9 hPa | 0 mm | - | 0 W/m² | - |
| 1787972474 | 33.89° C | 31% | 1013.2 hPa | 0 mm | - | 0 W/m² | - |
| 1787972168 | 33.89° C | 31% | 1013.4 hPa | 0 mm | - | 0 W/m² | - |
| 1787971863 | 33.89° C | 31% | 1013.3 hPa | 0 mm | - | 0 W/m² | - |
| 1787971559 | 33.89° C | 31% | 1013.2 hPa | 0 mm | - | 0 W/m² | - |
* Rain latest hour (hover to see other rain measurements)
** Current wind speed in m/s (hover to see current wind gust speed)